TimeCDT,TemperatureF,Dew PointF,Humidity,Sea Level PressureIn,VisibilityMPH,Wind Direction,Wind SpeedMPH,Gust SpeedMPH,PrecipitationIn,Events,Conditions,WindDirDegrees,DateUTC
12:53 AM,62.1,48.9,62,29.74,10.0,SSW,3.5,-,0.00,,Mostly Cloudy,210,2014-03-19 05:53:00
1:53 AM,63.0,39.0,41,29.77,10.0,West,5.8,21.9,N/A,,Mostly Cloudy,260,2014-03-19 06:53:00
2:53 AM,57.9,37.0,46,29.82,10.0,West,12.7,23.0,N/A,,Mostly Cloudy,260,2014-03-19 07:53:00
3:53 AM,53.1,35.1,50,29.84,10.0,West,16.1,23.0,N/A,,Clear,280,2014-03-19 08:53:00
4:53 AM,48.9,32.0,52,29.88,10.0,West,10.4,17.3,N/A,,Clear,280,2014-03-19 09:53:00
5:53 AM,46.0,30.9,56,29.93,10.0,West,12.7,23.0,N/A,,Clear,280,2014-03-19 10:53:00
6:53 AM,44.1,30.9,60,29.97,10.0,West,12.7,18.4,N/A,,Clear,280,2014-03-19 11:53:00
7:53 AM,44.1,30.9,60,30.00,10.0,West,13.8,25.3,N/A,,Clear,270,2014-03-19 12:53:00
8:53 AM,46.0,32.0,58,30.03,10.0,West,9.2,16.1,N/A,,Clear,280,2014-03-19 13:53:00
9:53 AM,48.9,34.0,56,30.06,10.0,WNW,13.8,19.6,N/A,,Clear,300,2014-03-19 14:53:00
10:53 AM,50.0,35.1,57,30.10,10.0,WNW,16.1,20.7,N/A,,Clear,290,2014-03-19 15:53:00
11:53 AM,53.1,37.0,55,30.11,10.0,WNW,11.5,18.4,N/A,,Partly Cloudy,300,2014-03-19 16:53:00
12:53 PM,54.0,36.0,51,30.12,10.0,WNW,15.0,24.2,N/A,,Clear,290,2014-03-19 17:53:00
1:53 PM,55.9,36.0,47,30.10,10.0,West,9.2,19.6,N/A,,Clear,260,2014-03-19 18:53:00
2:53 PM,57.9,36.0,44,30.09,10.0,West,8.1,-,N/A,,Clear,260,2014-03-19 19:53:00
3:53 PM,59.0,35.1,41,30.08,10.0,West,10.4,-,N/A,,Clear,270,2014-03-19 20:53:00
4:53 PM,61.0,35.1,38,30.08,10.0,West,10.4,17.3,N/A,,Clear,280,2014-03-19 21:53:00
5:53 PM,61.0,33.1,35,30.09,10.0,West,10.4,-,N/A,,Clear,280,2014-03-19 22:53:00
6:53 PM,59.0,33.1,38,30.11,10.0,Variable,3.5,-,N/A,,Clear,0,2014-03-19 23:53:00
7:53 PM,48.9,37.0,64,30.12,10.0,Calm,Calm,-,N/A,,Clear,0,2014-03-20 00:53:00
8:53 PM,43.0,36.0,76,30.14,10.0,Calm,Calm,-,N/A,,Clear,0,2014-03-20 01:53:00
9:53 PM,41.0,35.1,79,30.16,10.0,Calm,Calm,-,N/A,,Clear,0,2014-03-20 02:53:00
10:53 PM,39.0,34.0,82,30.18,10.0,Calm,Calm,-,N/A,,Clear,0,2014-03-20 03:53:00
11:53 PM,37.9,34.0,86,30.18,10.0,Calm,Calm,-,N/A,,Clear,0,2014-03-20 04:53:00